Flight Track Log - Related Links

Times and Time Zones

All times are in EDT time to prevent confusion due to time zone crossing. See the USC105 flight status page for this flight to view local times or setup timezone preferences in your user account.

Time Position Orientation Groundspeed Altitude Reporting Facility
EDT Latitude Longitude Course Direction KTS MPH feet Rate Location/Type
Tue 22:03:21 39.8197 -82.9219 46° Northeast 112 129 900  Level Indianapolis Center
Tue 22:04:16 39.8403 -82.8944 46° Northeast 122 140 1,900 919 Climbing Indianapolis Center
Tue 22:05:12 39.8603 -82.8714 42° Northeast 117 135 2,600 923 Climbing Indianapolis Center
Tue 22:06:13 39.8844 -82.8397 45° Northeast 119 137 3,700 1,082 Climbing Indianapolis Center
Tue 22:07:14 39.9169 -82.8281 15° North 122 140 4,800 590 Climbing Indianapolis Center
Tue 22:08:15 39.9536 -82.8147 16° North 135 155 4,900 246 Climbing Indianapolis Center
Tue 22:09:16 40.0053 -82.7947 17° North 163 188 5,300 738 Climbing Indianapolis Center
Tue 22:10:17 40.0439 -82.7767 20° North 148 170 6,400 785 Climbing Indianapolis Center
Tue 22:11:26 40.0903 -82.7567 18° North 154 177 7,000 298 Climbing Indianapolis Center
Tue 22:12:18 40.1242 -82.7092 47° Northeast 201 231 7,000  Level Indianapolis Center
Tue 22:13:19 40.1681 -82.6692 35° Northeast 192 221 7,000  Level Indianapolis Center
Tue 22:14:20 40.2142 -82.6406 25° Northeast 184 212 7,000  Level Indianapolis Center
Tue 22:15:21 40.2578 -82.6097 28° Northeast 184 212 7,000  Level Indianapolis Center
Tue 22:16:22 40.3039 -82.5767 29° Northeast 187 215 7,000  Level Indianapolis Center
Tue 22:17:23 40.3508 -82.5431 29° Northeast 190 219 7,000  Level Indianapolis Center
Tue 22:18:23 40.4000 -82.5100 27° Northeast 195 224 7,000  Level Indianapolis Center
Tue 22:19:24 40.4472 -82.4753 29° Northeast 195 224 7,000  Level Indianapolis Center
Tue 22:21:00 40.5115 -82.4304 28° Northeast  Level FlightAware Approximate
Tue 22:27:17 40.8292 -82.1967 32° Northeast 198 228 7,000  Level Cleveland Center
Tue 22:27:54 40.8564 -82.1781 27° Northeast 199 229 7,000  Level Cleveland Center
Tue 22:28:00 40.7922 -82.2332 28° Northeast  Level FlightAware Approximate
Tue 22:28:54 40.9092 -82.1381 30° Northeast 199 229 7,000  Level Cleveland Center
Tue 22:29:00 40.8323 -82.2049 28° Northeast  Level FlightAware Approximate
Tue 22:30:00 40.9523 -82.1045 30° Northeast  Level FlightAware Approximate
Tue 22:30:00 40.8723 -82.1765 28° Northeast  Level FlightAware Approximate
Tue 22:31:00 40.9124 -82.1482 28° Northeast  Level FlightAware Approximate
Tue 22:32:00 40.9516 -82.1179 32° Northeast  Level FlightAware Approximate
Tue 22:37:00 41.2300 -81.8986 37° Northeast  Level Estimated
Tue 22:38:00 41.2696 -81.8691 30° Northeast  Level Estimated
Tue 22:39:00 41.3078 -81.8364 33° Northeast  Level FlightAware Approximate
Tue 22:40:00 41.3461 -81.8036 33° Northeast  Level FlightAware Approximate
Tue 22:41:00 41.3843 -81.7709 33° Northeast  Level FlightAware Approximate
Tue 22:42:00 41.4225 -81.7380 33° Northeast  Level FlightAware Approximate
Tue 22:43:00 41.4642 -81.7140 27° Northeast  Level Estimated
Tue 22:44:00 41.5059 -81.6900 27° Northeast  Level Estimated
Tue 22:45:00 41.5175 -81.6833 27° Northeast  Level Estimated
Tue 22:46:00 41.5175 -81.6833 27° Northeast  Level Estimated
Tue 22:47:00 41.5175 -81.6833 27° Northeast  Level Estimated
Tue 22:48:00 41.5175 -81.6833 27° Northeast  Level Estimated
Tue 22:49:00 41.5175 -81.6833 27° Northeast  Level Estimated
Tue 22:50:00 41.5175 -81.6833 27° Northeast  Level Estimated
Tue 22:51:00 41.5175 -81.6833 27° Northeast  Level Estimated
Tue 22:52:00 41.5175 -81.6833 27° Northeast  Level Estimated

Login

Don't have an account? Register now (free) for customized features, flight alerts, and more!